Le Boreal — FLSY — position and weather

sailwx.info

Track history (hours):
 
Tides and Currents Weather Stations Pressure Air Temp Water Temp Dewpoint Dewpoint Depression Visibility Wind Speed Wind Dir Waves Ship Positions

Le Boreal

Last reported at 2017-Feb-24 02:28 UTC. Time now 2017-Feb-28 05:40 UTC.
Position S 55°02' W 066°43'.

Length 140 m; draft 5 m.

Type: Passenger vessel. MMSI: 578000500.

Date/timePositionNaut miles runAvg speedWind from/ knotsBaromVisibWave heightAir tempDewpointWater temp
2017-Feb-24 02:28S 55°02' W 066°43'2015.0
2017-Feb-24 01:10S 54°55' W 067°15'915.0
2017-Feb-24 00:33S 54°55' W 067°31'1515.5
2017-Feb-23 23:34S 54°53' W 067°57'1312.6
2017-Feb-23 22:33S 54°49' W 068°18'0 0.0
2017-Feb-23 21:33S 54°49' W 068°18'0 0.0
2017-Feb-23 20:33S 54°49' W 068°18'0 0.0
2017-Feb-23 19:33S 54°49' W 068°18'0 0.0
2017-Feb-23 18:33S 54°49' W 068°18'0 0.0
2017-Feb-23 17:33S 54°49' W 068°18'0 0.0
2017-Feb-23 16:33S 54°49' W 068°18'0 0.0
2017-Feb-23 15:33S 54°49' W 068°18'0 0.0
2017-Feb-23 14:33S 54°49' W 068°18'0 0.0
2017-Feb-23 13:33S 54°49' W 068°18'0 0.0
2017-Feb-23 12:33S 54°49' W 068°18'0 0.0
2017-Feb-23 11:30S 54°49' W 068°18'0 0.0
2017-Feb-23 10:33S 54°49' W 068°18'0 0.0
2017-Feb-23 09:33S 54°49' W 068°18'0 0.0
2017-Feb-23 08:33S 54°49' W 068°18'0 0.0
2017-Feb-23 07:33S 54°49' W 068°18'0 0.0
2017-Feb-23 06:33S 54°49' W 068°18'0 0.0
2017-Feb-23 05:33S 54°49' W 068°18'0 0.0
2017-Feb-23 04:33S 54°49' W 068°18'0 0.0
2017-Feb-23 03:33S 54°49' W 068°18'0 0.0
2017-Feb-23 02:33S 54°49' W 068°18'0 0.0
2017-Feb-23 01:33S 54°49' W 068°18'0 0.0
2017-Feb-23 00:33S 54°49' W 068°18'8 7.9
2017-Feb-22 23:32S 54°51' W 068°05'1211.8
2017-Feb-22 22:33S 54°54' W 067°45'6 5.6
2017-Feb-22 21:33S 54°55' W 067°36'0 0.1
2017-Feb-22 20:33S 54°55' W 067°36'0 0.1
2017-Feb-22 19:33S 54°55' W 067°36'0 0.0
2017-Feb-22 18:33S 54°55' W 067°36'0 0.1
2017-Feb-22 17:30S 54°56' W 067°36'0 0.1
2017-Feb-22 16:27S 54°55' W 067°36'7 8.1
2017-Feb-22 15:33S 54°55' W 067°23'  
Track history (hours):
 
Tides and Currents Weather Stations Pressure Air Temp Water Temp Dewpoint Dewpoint Depression Visibility Wind Speed Wind Dir Waves Ship Positions

Le Boreal

Last reported at 2017-Feb-24 02:28 UTC. Time now 2017-Feb-28 05:40 UTC.
Position S 55°02' W 066°43'.

Length 140 m; draft 5 m.

Type: Passenger vessel. MMSI: 578000500.

Date/timePositionNaut miles runAvg speedWind from/ knotsBaromVisibWave heightAir tempDewpointWater temp
2017-Feb-24 02:28S 55°02' W 066°43'2015.0
2017-Feb-24 01:10S 54°55' W 067°15'915.0
2017-Feb-24 00:33S 54°55' W 067°31'1515.5
2017-Feb-23 23:34S 54°53' W 067°57'1312.6
2017-Feb-23 22:33S 54°49' W 068°18'0 0.0
2017-Feb-23 21:33S 54°49' W 068°18'0 0.0
2017-Feb-23 20:33S 54°49' W 068°18'0 0.0
2017-Feb-23 19:33S 54°49' W 068°18'0 0.0
2017-Feb-23 18:33S 54°49' W 068°18'0 0.0
2017-Feb-23 17:33S 54°49' W 068°18'0 0.0
2017-Feb-23 16:33S 54°49' W 068°18'0 0.0
2017-Feb-23 15:33S 54°49' W 068°18'0 0.0
2017-Feb-23 14:33S 54°49' W 068°18'0 0.0
2017-Feb-23 13:33S 54°49' W 068°18'0 0.0
2017-Feb-23 12:33S 54°49' W 068°18'0 0.0
2017-Feb-23 11:30S 54°49' W 068°18'0 0.0
2017-Feb-23 10:33S 54°49' W 068°18'0 0.0
2017-Feb-23 09:33S 54°49' W 068°18'0 0.0
2017-Feb-23 08:33S 54°49' W 068°18'0 0.0
2017-Feb-23 07:33S 54°49' W 068°18'0 0.0
2017-Feb-23 06:33S 54°49' W 068°18'0 0.0
2017-Feb-23 05:33S 54°49' W 068°18'0 0.0
2017-Feb-23 04:33S 54°49' W 068°18'0 0.0
2017-Feb-23 03:33S 54°49' W 068°18'0 0.0
2017-Feb-23 02:33S 54°49' W 068°18'0 0.0
2017-Feb-23 01:33S 54°49' W 068°18'0 0.0
2017-Feb-23 00:33S 54°49' W 068°18'8 7.9
2017-Feb-22 23:32S 54°51' W 068°05'1211.8
2017-Feb-22 22:33S 54°54' W 067°45'6 5.6
2017-Feb-22 21:33S 54°55' W 067°36'0 0.1
2017-Feb-22 20:33S 54°55' W 067°36'0 0.1
2017-Feb-22 19:33S 54°55' W 067°36'0 0.0
2017-Feb-22 18:33S 54°55' W 067°36'0 0.1
2017-Feb-22 17:30S 54°56' W 067°36'0 0.1
2017-Feb-22 16:27S 54°55' W 067°36'7 8.1
2017-Feb-22 15:33S 54°55' W 067°23'  

Dump ship's entire track history